createdAt,value
2018-09-29T00:00:24.692Z,83.42
2018-09-29T00:01:24.683Z,83.14
2018-09-29T00:02:45.675Z,83.33
2018-09-29T00:03:45.653Z,83.23
2018-09-29T00:04:24.652Z,83.71
2018-09-29T00:05:24.643Z,83.52
2018-09-29T00:06:24.622Z,83.42
2018-09-29T00:07:45.668Z,82.86
2018-09-29T00:08:45.616Z,83.71
2018-09-29T00:09:24.589Z,83.81
2018-09-29T00:10:24.614Z,83.62
2018-09-29T00:11:24.629Z,83.71
2018-09-29T00:12:45.576Z,83.81
2018-09-29T00:13:45.618Z,83.33
2018-09-29T00:14:24.596Z,84.00
2018-09-29T00:15:24.561Z,83.95
2018-09-29T00:16:24.595Z,84.05
2018-09-29T00:17:45.568Z,83.90
2018-09-29T00:18:45.549Z,84.05
2018-09-29T00:19:24.531Z,83.90
2018-09-29T00:20:24.554Z,83.76
2018-09-29T00:21:25.487Z,83.67
2018-09-29T00:22:45.540Z,84.00
2018-09-29T00:23:45.530Z,84.05
2018-09-29T00:24:24.537Z,83.76
2018-09-29T00:25:24.610Z,83.81
2018-09-29T00:26:24.537Z,83.86
2018-09-29T00:27:45.509Z,83.76
2018-09-29T00:28:45.504Z,84.09
2018-09-29T00:29:24.482Z,83.58
2018-09-29T00:30:24.483Z,84.24
2018-09-29T00:31:24.510Z,83.76
2018-09-29T00:32:45.499Z,83.76
2018-09-29T00:33:45.490Z,84.05
2018-09-29T00:34:24.461Z,84.05
2018-09-29T00:35:24.469Z,84.14
2018-09-29T00:36:24.450Z,83.95
2018-09-29T00:37:45.452Z,83.76
2018-09-29T00:38:45.406Z,83.67
2018-09-29T00:39:24.422Z,84.43
2018-09-29T00:40:24.411Z,84.14
2018-09-29T00:41:24.411Z,84.33
2018-09-29T00:42:45.454Z,84.05
2018-09-29T00:43:45.415Z,84.24
2018-09-29T00:44:24.402Z,84.24
2018-09-29T00:45:24.405Z,84.33
2018-09-29T00:46:24.360Z,84.43
2018-09-29T00:47:45.381Z,84.33
2018-09-29T00:48:45.376Z,84.33
2018-09-29T00:49:24.363Z,84.52
2018-09-29T00:50:24.353Z,84.14
2018-09-29T00:51:24.356Z,84.05
2018-09-29T00:52:45.345Z,84.43
2018-09-29T00:53:45.353Z,84.43
2018-09-29T00:54:24.331Z,84.62
2018-09-29T00:55:24.326Z,84.72
2018-09-29T00:56:24.328Z,84.24
2018-09-29T00:57:45.321Z,84.62
2018-09-29T00:58:45.312Z,84.24
2018-09-29T00:59:24.289Z,84.43
2018-09-29T01:00:24.302Z,83.95
2018-09-29T01:01:24.292Z,84.24
2018-09-29T01:02:46.246Z,84.24
2018-09-29T01:03:45.284Z,83.86
2018-09-29T01:04:24.277Z,84.62
2018-09-29T01:05:24.284Z,84.24
2018-09-29T01:06:24.263Z,83.76
2018-09-29T01:07:45.228Z,84.43
2018-09-29T01:08:45.256Z,84.05
2018-09-29T01:09:24.234Z,84.43
2018-09-29T01:10:24.227Z,84.33
2018-09-29T01:11:24.224Z,84.05
2018-09-29T01:12:45.187Z,84.33
2018-09-29T01:13:45.220Z,84.05
2018-09-29T01:14:24.214Z,84.24
2018-09-29T01:15:24.197Z,84.24
2018-09-29T01:16:24.175Z,84.33
2018-09-29T01:17:45.207Z,84.24
2018-09-29T01:18:45.201Z,84.62
2018-09-29T01:19:24.182Z,84.33
2018-09-29T01:20:24.172Z,84.14
2018-09-29T01:21:24.193Z,84.52
2018-09-29T01:22:45.162Z,84.24
2018-09-29T01:23:45.160Z,84.33
2018-09-29T01:24:24.139Z,84.33
2018-09-29T01:25:24.208Z,84.33
2018-09-29T01:26:24.145Z,84.24
2018-09-29T01:27:45.127Z,84.24
2018-09-29T01:28:45.142Z,84.24
2018-09-29T01:29:24.113Z,84.14
2018-09-29T01:30:24.123Z,84.43
2018-09-29T01:31:24.138Z,84.43
2018-09-29T01:32:45.090Z,84.48
2018-09-29T01:33:45.100Z,84.43
2018-09-29T01:34:24.070Z,84.33
2018-09-29T01:35:24.070Z,84.10
2018-09-29T01:36:24.062Z,83.95
2018-09-29T01:37:45.053Z,84.48
2018-09-29T01:38:45.044Z,84.29
2018-09-29T01:39:24.068Z,84.77
2018-09-29T01:40:24.034Z,84.86
2018-09-29T01:41:24.033Z,84.20
2018-09-29T01:42:45.023Z,84.20
2018-09-29T01:43:45.034Z,84.77
2018-09-29T01:44:24.008Z,84.81
2018-09-29T01:45:24.057Z,84.29
2018-09-29T01:46:23.993Z,84.29
2018-09-29T01:47:44.996Z,84.14
2018-09-29T01:48:44.987Z,84.24
2018-09-29T01:49:23.971Z,84.39
2018-09-29T01:50:23.949Z,84.10
2018-09-29T01:51:24.052Z,84.20
2018-09-29T01:52:44.960Z,84.48
2018-09-29T01:53:44.927Z,84.48
2018-09-29T01:54:23.937Z,84.10
2018-09-29T01:55:23.985Z,84.39
2018-09-29T01:56:23.964Z,84.86
2018-09-29T01:57:44.924Z,84.20
2018-09-29T01:58:44.925Z,84.77
2018-09-29T01:59:23.960Z,84.86
2018-09-29T02:00:23.904Z,84.86
2018-09-29T02:01:23.925Z,84.48
2018-09-29T02:02:44.890Z,84.95
2018-09-29T02:03:45.273Z,84.95
2018-09-29T02:04:23.865Z,85.15
2018-09-29T02:05:23.896Z,84.67
2018-09-29T02:06:23.852Z,84.67
2018-09-29T02:07:44.860Z,84.58
2018-09-29T02:08:44.837Z,84.58
2018-09-29T02:09:23.892Z,85.34
2018-09-29T02:10:23.849Z,84.95
2018-09-29T02:11:23.842Z,84.58
2018-09-29T02:12:44.829Z,85.24
2018-09-29T02:13:44.819Z,85.15
2018-09-29T02:14:23.810Z,84.95
2018-09-29T02:15:23.857Z,85.05
2018-09-29T02:16:23.786Z,84.95
2018-09-29T02:17:44.793Z,84.86
2018-09-29T02:18:44.790Z,85.15
2018-09-29T02:19:23.764Z,84.86
2018-09-29T02:20:23.769Z,85.24
2018-09-29T02:21:23.747Z,84.86
2018-09-29T02:22:44.745Z,84.39
2018-09-29T02:23:44.744Z,84.67
2018-09-29T02:24:23.746Z,84.39
2018-09-29T02:25:23.772Z,84.86
2018-09-29T02:26:23.727Z,84.95
2018-09-29T02:27:44.727Z,84.86
2018-09-29T02:28:44.719Z,84.86
2018-09-29T02:29:23.701Z,84.95
2018-09-29T02:30:23.686Z,84.95
2018-09-29T02:31:23.695Z,85.05
2018-09-29T02:32:44.676Z,85.05
2018-09-29T02:33:44.648Z,84.95
2018-09-29T02:34:23.668Z,85.05
2018-09-29T02:35:23.719Z,85.34
2018-09-29T02:36:23.637Z,85.15
2018-09-29T02:37:44.643Z,85.24
2018-09-29T02:38:44.610Z,85.05
2018-09-29T02:39:23.634Z,85.24
2018-09-29T02:40:23.606Z,85.24
2018-09-29T02:41:23.612Z,85.05
2018-09-29T02:42:44.608Z,85.15
2018-09-29T02:43:44.614Z,85.05
2018-09-29T02:44:23.598Z,85.15
2018-09-29T02:45:23.592Z,85.24
2018-09-29T02:46:23.574Z,84.95
2018-09-29T02:47:44.578Z,85.05
2018-09-29T02:48:44.575Z,85.24
2018-09-29T02:49:23.560Z,84.95
2018-09-29T02:50:23.535Z,84.95
2018-09-29T02:51:23.535Z,85.24
2018-09-29T02:52:44.547Z,84.95
2018-09-29T02:53:44.512Z,85.15
2018-09-29T02:54:23.869Z,85.15
2018-09-29T02:55:23.529Z,85.05
2018-09-29T02:56:23.521Z,85.05
2018-09-29T02:57:44.522Z,85.05
2018-09-29T02:58:44.515Z,85.05
2018-09-29T02:59:23.504Z,85.05
2018-09-29T03:00:23.465Z,85.05
2018-09-29T03:01:23.476Z,85.34
2018-09-29T03:02:44.479Z,85.15
2018-09-29T03:03:44.474Z,85.05
2018-09-29T03:04:23.464Z,85.05
2018-09-29T03:05:23.453Z,85.05
2018-09-29T03:06:23.445Z,85.05
2018-09-29T03:07:44.441Z,85.24
2018-09-29T03:08:44.414Z,85.05
2018-09-29T03:09:23.423Z,85.05
2018-09-29T03:10:23.393Z,85.15
2018-09-29T03:11:23.400Z,84.95
2018-09-29T03:12:44.410Z,85.05
2018-09-29T03:13:44.414Z,85.05
2018-09-29T03:14:23.413Z,85.24
2018-09-29T03:15:23.421Z,84.95
2018-09-29T03:16:23.389Z,85.05
2018-09-29T03:17:44.372Z,84.95
2018-09-29T03:18:44.401Z,85.62
2018-09-29T03:19:23.443Z,85.62
2018-09-29T03:20:23.343Z,85.43
2018-09-29T03:21:23.352Z,85.43
2018-09-29T03:22:44.338Z,85.43
2018-09-29T03:23:44.329Z,85.43
2018-09-29T03:24:23.324Z,85.43
2018-09-29T03:25:24.257Z,85.24
2018-09-29T03:26:23.318Z,85.43
2018-09-29T03:27:44.298Z,85.53
2018-09-29T03:28:44.390Z,85.53
2018-09-29T03:29:23.253Z,85.53
2018-09-29T03:30:23.273Z,85.62
2018-09-29T03:31:23.325Z,85.62
2018-09-29T03:32:44.272Z,85.53
2018-09-29T03:33:44.259Z,85.62
2018-09-29T03:34:23.258Z,85.72
2018-09-29T03:35:23.239Z,85.62
2018-09-29T03:36:23.231Z,85.49
2018-09-29T03:37:44.233Z,85.58
2018-09-29T03:38:44.218Z,85.49
2018-09-29T03:39:23.219Z,85.68
2018-09-29T03:40:23.209Z,85.49
2018-09-29T03:41:23.196Z,85.39
2018-09-29T03:42:44.200Z,85.39
2018-09-29T03:43:44.191Z,85.39
2018-09-29T03:44:23.186Z,85.49
2018-09-29T03:45:23.208Z,85.30
2018-09-29T03:46:23.165Z,85.30
2018-09-29T03:47:44.171Z,85.68
2018-09-29T03:48:44.150Z,85.30
2018-09-29T03:49:23.140Z,86.05
2018-09-29T03:50:23.134Z,85.39
2018-09-29T03:51:23.096Z,85.86
2018-09-29T03:52:44.101Z,85.68
2018-09-29T03:53:44.159Z,85.86
2018-09-29T03:54:23.085Z,85.68
2018-09-29T03:55:23.165Z,85.86
2018-09-29T03:56:23.087Z,85.86
2018-09-29T03:57:44.089Z,85.68
2018-09-29T03:58:44.083Z,85.77
2018-09-29T03:59:23.061Z,85.68
2018-09-29T04:00:23.053Z,85.77
2018-09-29T04:01:23.054Z,85.77
2018-09-29T04:02:44.029Z,85.77
2018-09-29T04:03:44.047Z,85.86
2018-09-29T04:04:23.041Z,85.68
2018-09-29T04:05:23.030Z,85.77
2018-09-29T04:06:23.029Z,85.86
2018-09-29T04:07:44.015Z,85.68
2018-09-29T04:08:44.018Z,85.49
2018-09-29T04:09:23.019Z,85.30
2018-09-29T04:10:23.000Z,85.68
2018-09-29T04:11:22.972Z,85.39
2018-09-29T04:12:43.987Z,85.68
2018-09-29T04:13:43.989Z,85.39
2018-09-29T04:14:22.957Z,85.39
2018-09-29T04:15:22.954Z,85.68
2018-09-29T04:16:22.958Z,85.30
2018-09-29T04:17:43.939Z,85.39
2018-09-29T04:18:43.937Z,85.30
2018-09-29T04:19:22.923Z,85.39
2018-09-29T04:20:22.929Z,85.49
2018-09-29T04:21:22.900Z,85.58
2018-09-29T04:22:43.906Z,85.49
2018-09-29T04:23:43.914Z,85.39
2018-09-29T04:24:22.892Z,85.68
2018-09-29T04:25:22.971Z,85.39
2018-09-29T04:26:23.036Z,85.68
2018-09-29T04:27:43.865Z,85.49
2018-09-29T04:28:43.866Z,85.20
2018-09-29T04:29:22.850Z,84.72
2018-09-29T04:30:22.849Z,84.53
2018-09-29T04:31:22.838Z,84.82
2018-09-29T04:32:43.833Z,84.91
2018-09-29T04:33:43.831Z,85.01
2018-09-29T04:34:22.820Z,84.91
2018-09-29T04:35:22.814Z,85.01
2018-09-29T04:36:22.796Z,85.01
2018-09-29T04:37:44.799Z,84.91
2018-09-29T04:38:43.789Z,84.82
2018-09-29T04:39:22.773Z,84.53
2018-09-29T04:40:22.768Z,84.53
2018-09-29T04:41:22.785Z,84.72
2018-09-29T04:42:43.762Z,84.72
2018-09-29T04:43:43.758Z,85.20
2018-09-29T04:44:22.744Z,85.58
2018-09-29T04:45:22.738Z,85.11
2018-09-29T04:46:22.722Z,85.68
2018-09-29T04:47:43.716Z,85.58
2018-09-29T04:48:43.719Z,85.68
2018-09-29T04:49:22.713Z,85.58
2018-09-29T04:50:22.702Z,85.49
2018-09-29T04:51:22.685Z,85.58
2018-09-29T04:52:43.693Z,85.68
2018-09-29T04:53:43.681Z,85.77
2018-09-29T04:54:22.678Z,85.68
2018-09-29T04:55:22.758Z,85.77
2018-09-29T04:56:22.659Z,85.68
2018-09-29T04:57:43.648Z,85.49
2018-09-29T04:58:43.644Z,85.39
2018-09-29T04:59:22.641Z,85.58
2018-09-29T05:00:22.637Z,85.49
2018-09-29T05:01:22.620Z,85.49
2018-09-29T05:02:43.624Z,85.49
2018-09-29T05:03:43.614Z,85.68
2018-09-29T05:04:22.601Z,85.68
2018-09-29T05:05:22.625Z,85.49
2018-09-29T05:06:22.649Z,85.49
2018-09-29T05:07:43.577Z,85.68
2018-09-29T05:08:43.576Z,85.49
2018-09-29T05:09:22.560Z,85.58
2018-09-29T05:10:22.568Z,85.68
2018-09-29T05:11:22.552Z,85.39
2018-09-29T05:12:43.545Z,85.58
2018-09-29T05:13:43.536Z,85.30
2018-09-29T05:14:22.507Z,85.68
2018-09-29T05:15:25.161Z,85.20
2018-09-29T05:16:22.514Z,85.30
2018-09-29T05:17:43.517Z,85.68
2018-09-29T05:18:43.529Z,85.30
2018-09-29T05:19:22.491Z,85.86
2018-09-29T05:20:22.493Z,85.77
2018-09-29T05:21:22.484Z,86.15
2018-09-29T05:22:43.472Z,85.96
2018-09-29T05:23:43.460Z,85.30
2018-09-29T05:24:22.452Z,85.49
2018-09-29T05:25:22.540Z,85.20
2018-09-29T05:26:22.444Z,85.39
2018-09-29T05:27:43.433Z,85.30
2018-09-29T05:28:43.426Z,85.86
2018-09-29T05:29:22.394Z,85.63
2018-09-29T05:30:22.413Z,86.24
2018-09-29T05:31:22.411Z,85.72
2018-09-29T05:32:43.395Z,86.01
2018-09-29T05:33:43.400Z,86.01
2018-09-29T05:34:22.400Z,86.20
2018-09-29T05:35:22.445Z,86.11
2018-09-29T05:36:22.347Z,86.20
2018-09-29T05:37:43.360Z,85.72
2018-09-29T05:38:43.951Z,85.72
2018-09-29T05:39:22.326Z,86.01
2018-09-29T05:40:22.336Z,85.91
2018-09-29T05:41:22.327Z,85.82
2018-09-29T05:42:43.308Z,85.72
2018-09-29T05:43:43.284Z,85.82
2018-09-29T05:44:22.298Z,85.63
2018-09-29T05:45:22.293Z,85.82
2018-09-29T05:46:22.289Z,85.91
2018-09-29T05:47:43.283Z,86.20
2018-09-29T05:48:43.272Z,85.72
2018-09-29T05:49:22.253Z,85.63
2018-09-29T05:50:22.259Z,85.82
2018-09-29T05:51:22.236Z,86.39
2018-09-29T05:52:43.243Z,86.20
2018-09-29T05:53:43.231Z,85.53
2018-09-29T05:54:22.201Z,85.82
2018-09-29T05:55:22.231Z,85.72
2018-09-29T05:56:22.184Z,85.82
2018-09-29T05:57:43.176Z,85.72
2018-09-29T05:58:43.177Z,85.53
2018-09-29T05:59:22.166Z,86.24
2018-09-29T06:00:22.201Z,85.63
2018-09-29T06:01:22.179Z,85.77
2018-09-29T06:02:43.157Z,85.77
2018-09-29T06:03:43.151Z,85.86
2018-09-29T06:04:22.143Z,85.68
2018-09-29T06:05:22.217Z,85.86
2018-09-29T06:06:22.121Z,85.58
2018-09-29T06:07:43.107Z,86.15
2018-09-29T06:08:43.116Z,85.86
2018-09-29T06:09:22.102Z,86.05
2018-09-29T06:10:22.096Z,86.24
2018-09-29T06:11:22.096Z,86.43
2018-09-29T06:12:43.092Z,86.24
2018-09-29T06:13:43.082Z,86.24
2018-09-29T06:14:22.074Z,86.15
2018-09-29T06:15:22.060Z,86.15
2018-09-29T06:16:22.057Z,86.15
2018-09-29T06:17:43.054Z,86.24
2018-09-29T06:18:43.045Z,85.68
2018-09-29T06:19:22.026Z,85.68
2018-09-29T06:20:21.991Z,85.86
2018-09-29T06:21:22.005Z,85.77
2018-09-29T06:22:43.006Z,85.86
2018-09-29T06:23:42.997Z,85.96
2018-09-29T06:24:21.954Z,85.77
2018-09-29T06:25:22.035Z,85.77
2018-09-29T06:26:21.967Z,85.77
2018-09-29T06:27:42.970Z,85.86
2018-09-29T06:28:42.939Z,85.86
2018-09-29T06:29:22.587Z,85.77
2018-09-29T06:30:21.951Z,85.77
2018-09-29T06:31:21.938Z,85.96
2018-09-29T06:32:42.945Z,86.15
2018-09-29T06:33:42.923Z,86.05
2018-09-29T06:34:21.920Z,85.86
2018-09-29T06:35:22.017Z,85.68
2018-09-29T06:36:21.897Z,85.68
2018-09-29T06:37:42.899Z,85.77
2018-09-29T06:38:42.901Z,85.77
2018-09-29T06:39:21.885Z,85.86
2018-09-29T06:40:21.874Z,85.86
2018-09-29T06:41:21.878Z,85.77
2018-09-29T06:42:42.868Z,85.96
2018-09-29T06:43:42.850Z,85.77
2018-09-29T06:44:21.811Z,85.39
2018-09-29T06:45:21.880Z,85.96
2018-09-29T06:46:21.827Z,85.20
2018-09-29T06:47:42.878Z,85.68
2018-09-29T06:48:42.818Z,85.77
2018-09-29T06:49:21.807Z,85.96
2018-09-29T06:50:21.795Z,85.77
2018-09-29T06:51:21.776Z,85.86
2018-09-29T06:52:42.793Z,85.86
2018-09-29T06:53:42.782Z,85.68
2018-09-29T06:54:21.840Z,86.34
2018-09-29T06:55:21.763Z,85.77
2018-09-29T06:56:21.729Z,85.86
2018-09-29T06:57:42.753Z,85.86
2018-09-29T06:58:42.749Z,85.86
2018-09-29T06:59:21.742Z,85.68
2018-09-29T07:00:22.675Z,86.34
2018-09-29T07:01:21.728Z,86.24
2018-09-29T07:02:42.717Z,85.86
2018-09-29T07:03:42.720Z,86.15
2018-09-29T07:04:21.676Z,86.38
2018-09-29T07:05:21.690Z,85.96
2018-09-29T07:06:21.694Z,86.29
2018-09-29T07:07:42.685Z,86.38
2018-09-29T07:08:42.674Z,85.81
2018-09-29T07:09:21.658Z,85.91
2018-09-29T07:10:21.648Z,85.81
2018-09-29T07:11:21.639Z,85.62
2018-09-29T07:12:42.677Z,85.62
2018-09-29T07:13:42.639Z,85.81
2018-09-29T07:14:21.628Z,86.00
2018-09-29T07:15:21.668Z,85.34
2018-09-29T07:16:21.621Z,85.24
2018-09-29T07:17:42.608Z,85.91
2018-09-29T07:18:42.609Z,85.34
2018-09-29T07:19:21.592Z,85.15
2018-09-29T07:20:21.564Z,85.43
2018-09-29T07:21:21.559Z,85.43
2018-09-29T07:22:42.553Z,85.43
2018-09-29T07:23:42.573Z,85.72
2018-09-29T07:24:21.558Z,85.24
2018-09-29T07:25:21.652Z,85.53
2018-09-29T07:26:21.550Z,85.24
2018-09-29T07:27:42.543Z,85.43
2018-09-29T07:28:42.536Z,86.00
2018-09-29T07:29:21.531Z,85.91
2018-09-29T07:30:21.544Z,85.81
2018-09-29T07:31:21.516Z,85.72
2018-09-29T07:32:42.504Z,86.10
2018-09-29T07:33:42.490Z,85.95
2018-09-29T07:34:21.481Z,85.95
2018-09-29T07:35:21.474Z,85.47
2018-09-29T07:36:21.452Z,85.76
2018-09-29T07:37:42.471Z,85.66
2018-09-29T07:38:42.469Z,85.47
2018-09-29T07:39:21.496Z,85.76
2018-09-29T07:40:21.437Z,85.57
2018-09-29T07:41:21.436Z,85.47
2018-09-29T07:42:42.422Z,85.76
2018-09-29T07:43:42.432Z,85.76
2018-09-29T07:44:21.409Z,85.66
2018-09-29T07:45:21.464Z,85.66
2018-09-29T07:46:21.400Z,85.76
2018-09-29T07:47:42.392Z,85.66
2018-09-29T07:48:42.402Z,85.76
2018-09-29T07:49:21.475Z,85.19
2018-09-29T07:50:21.387Z,84.62
2018-09-29T07:51:21.365Z,84.62
2018-09-29T07:52:42.358Z,84.81
2018-09-29T07:53:42.369Z,84.62
2018-09-29T07:54:21.349Z,85.00
2018-09-29T07:55:21.343Z,85.14
2018-09-29T07:56:21.356Z,84.95
2018-09-29T07:57:42.345Z,85.33
2018-09-29T07:58:42.325Z,85.14
2018-09-29T07:59:21.333Z,85.33
2018-09-29T08:00:21.284Z,85.33
2018-09-29T08:01:21.748Z,85.33
2018-09-29T08:02:42.291Z,85.04
2018-09-29T08:03:42.283Z,84.95
2018-09-29T08:04:21.277Z,84.95
2018-09-29T08:05:21.267Z,84.76
2018-09-29T08:06:21.269Z,84.76
2018-09-29T08:07:42.268Z,84.76
2018-09-29T08:08:42.261Z,84.47
2018-09-29T08:09:21.248Z,84.47
2018-09-29T08:10:22.199Z,84.95
2018-09-29T08:11:21.461Z,84.19
2018-09-29T08:12:42.271Z,84.56
2018-09-29T08:13:42.223Z,84.19
2018-09-29T08:14:21.212Z,84.47
2018-09-29T08:15:21.210Z,84.47
2018-09-29T08:16:21.239Z,84.42
2018-09-29T08:17:42.220Z,84.61
2018-09-29T08:18:43.006Z,84.33
2018-09-29T08:19:22.277Z,84.61
2018-09-29T08:20:21.552Z,84.61
2018-09-29T08:21:21.171Z,84.04
2018-09-29T08:22:42.853Z,84.23
2018-09-29T08:23:42.277Z,84.04
2018-09-29T08:24:23.039Z,84.70
2018-09-29T08:25:21.266Z,84.61
2018-09-29T08:26:21.370Z,84.89
2018-09-29T08:27:42.143Z,84.52
2018-09-29T08:28:42.145Z,84.52
2018-09-29T08:29:21.133Z,84.99
2018-09-29T08:30:21.114Z,84.70
2018-09-29T08:31:21.113Z,84.61
2018-09-29T08:32:42.145Z,84.33
2018-09-29T08:33:43.375Z,84.33
2018-09-29T08:34:22.577Z,84.36
2018-09-29T08:35:22.336Z,83.98
2018-09-29T08:36:22.483Z,84.17
2018-09-29T08:37:42.166Z,84.56
2018-09-29T08:38:42.083Z,84.46
2018-09-29T08:39:21.098Z,84.27
2018-09-29T08:40:21.494Z,84.46
2018-09-29T08:41:21.112Z,83.80
2018-09-29T08:42:42.386Z,83.98
2018-09-29T08:43:42.193Z,83.98
2018-09-29T08:44:21.065Z,84.17
2018-09-29T08:45:21.106Z,83.80
2018-09-29T08:46:21.018Z,83.80
2018-09-29T08:47:42.978Z,83.89
2018-09-29T08:48:42.136Z,83.70
2018-09-29T08:49:21.004Z,83.80
2018-09-29T08:50:21.011Z,83.61
2018-09-29T08:51:20.991Z,83.89
2018-09-29T08:52:41.993Z,83.98
2018-09-29T08:53:42.031Z,84.03
2018-09-29T08:54:20.973Z,83.51
2018-09-29T08:55:21.243Z,83.36
2018-09-29T08:56:20.949Z,83.45
2018-09-29T08:57:41.964Z,83.17
2018-09-29T08:58:41.950Z,83.36
2018-09-29T08:59:20.925Z,83.45
2018-09-29T09:00:20.937Z,83.07
2018-09-29T09:01:20.937Z,83.36
2018-09-29T09:02:41.951Z,82.98
2018-09-29T09:03:41.938Z,83.17
2018-09-29T09:04:20.929Z,82.79
2018-09-29T09:05:20.982Z,82.89
2018-09-29T09:06:20.912Z,82.89
2018-09-29T09:07:41.920Z,83.17
2018-09-29T09:08:41.919Z,83.45
2018-09-29T09:09:20.927Z,83.07
2018-09-29T09:10:20.883Z,82.98
2018-09-29T09:11:20.917Z,82.98
2018-09-29T09:12:41.926Z,82.41
2018-09-29T09:13:42.747Z,83.17
2018-09-29T09:14:20.981Z,82.89
2018-09-29T09:15:20.885Z,83.02
2018-09-29T09:16:20.873Z,83.21
2018-09-29T09:17:41.901Z,82.92
2018-09-29T09:18:41.847Z,81.97
2018-09-29T09:19:21.006Z,82.92
2018-09-29T09:20:20.886Z,82.64
2018-09-29T09:21:20.831Z,82.35
2018-09-29T09:22:41.841Z,82.64
2018-09-29T09:23:42.067Z,82.64
2018-09-29T09:24:20.887Z,82.64
2018-09-29T09:25:20.807Z,82.54
2018-09-29T09:26:20.780Z,82.54
2018-09-29T09:27:41.804Z,81.88
2018-09-29T09:28:43.394Z,81.88
2018-09-29T09:29:20.825Z,81.97
2018-09-29T09:30:20.900Z,81.88
2018-09-29T09:31:20.770Z,82.07
2018-09-29T09:32:41.895Z,81.88
2018-09-29T09:33:41.775Z,81.78
2018-09-29T09:34:20.766Z,81.30
2018-09-29T09:35:20.761Z,81.63
2018-09-29T09:36:20.753Z,81.78
2018-09-29T09:37:41.774Z,82.11
2018-09-29T09:38:41.759Z,81.82
2018-09-29T09:39:20.757Z,81.73
2018-09-29T09:40:20.733Z,81.73
2018-09-29T09:41:20.704Z,81.82
2018-09-29T09:42:41.729Z,81.63
2018-09-29T09:43:41.721Z,81.82
2018-09-29T09:44:20.715Z,81.82
2018-09-29T09:45:22.048Z,81.92
2018-09-29T09:46:20.706Z,81.63
2018-09-29T09:47:41.706Z,81.54
2018-09-29T09:48:41.705Z,81.73
2018-09-29T09:49:20.730Z,81.63
2018-09-29T09:50:20.689Z,81.92
2018-09-29T09:51:20.684Z,81.82
2018-09-29T09:52:42.759Z,81.35
2018-09-29T09:53:41.673Z,81.73
2018-09-29T09:54:20.668Z,81.15
2018-09-29T09:55:20.691Z,81.73
2018-09-29T09:56:20.652Z,81.44
2018-09-29T09:57:41.663Z,81.35
2018-09-29T09:58:41.655Z,81.35
2018-09-29T09:59:20.646Z,81.25
2018-09-29T10:00:20.641Z,81.54
2018-09-29T10:01:20.634Z,81.63
2018-09-29T10:02:41.610Z,81.54
2018-09-29T10:03:41.633Z,81.15
2018-09-29T10:04:21.407Z,81.44
2018-09-29T10:05:20.679Z,81.06
2018-09-29T10:06:20.682Z,79.96
2018-09-29T10:07:41.609Z,80.33
2018-09-29T10:08:41.607Z,80.05
2018-09-29T10:09:20.596Z,80.05
2018-09-29T10:10:20.599Z,80.15
2018-09-29T10:11:20.581Z,80.24
2018-09-29T10:12:41.590Z,80.15
2018-09-29T10:13:41.574Z,80.05
2018-09-29T10:14:20.549Z,80.24
2018-09-29T10:15:20.586Z,80.43
2018-09-29T10:16:20.575Z,79.48
2018-09-29T10:17:41.562Z,80.05
2018-09-29T10:18:41.558Z,80.05
2018-09-29T10:19:20.525Z,79.86
2018-09-29T10:20:20.550Z,79.86
2018-09-29T10:21:20.543Z,79.57
2018-09-29T10:22:41.563Z,79.19
2018-09-29T10:23:41.502Z,78.52
2018-09-29T10:24:20.525Z,78.23
2018-09-29T10:25:20.596Z,77.95
2018-09-29T10:26:20.525Z,77.99
2018-09-29T10:27:41.593Z,77.70
2018-09-29T10:28:41.519Z,77.99
2018-09-29T10:29:20.506Z,78.28
2018-09-29T10:30:20.510Z,78.28
2018-09-29T10:31:20.501Z,78.47
2018-09-29T10:32:41.504Z,78.37
2018-09-29T10:33:41.503Z,77.61
2018-09-29T10:34:20.525Z,77.32
2018-09-29T10:35:21.452Z,77.51
2018-09-29T10:36:20.491Z,76.65
2018-09-29T10:37:41.458Z,76.56
2018-09-29T10:38:41.478Z,76.08
2018-09-29T10:39:20.468Z,76.27
2018-09-29T10:40:20.474Z,75.70
2018-09-29T10:41:20.466Z,75.13
2018-09-29T10:42:41.462Z,75.22
2018-09-29T10:43:41.477Z,75.13
2018-09-29T10:44:20.441Z,75.03
2018-09-29T10:45:20.428Z,74.84
2018-09-29T10:46:20.436Z,74.37
2018-09-29T10:47:41.538Z,74.65
2018-09-29T10:48:41.570Z,74.27
2018-09-29T10:49:20.852Z,74.08
2018-09-29T10:50:20.807Z,73.88
2018-09-29T10:51:20.523Z,74.46
2018-09-29T10:52:41.677Z,74.08
2018-09-29T10:53:41.427Z,73.60
2018-09-29T10:54:20.998Z,73.88
2018-09-29T10:55:20.910Z,73.98
2018-09-29T10:56:20.982Z,73.98
2018-09-29T10:57:41.513Z,73.79
2018-09-29T10:58:41.466Z,73.92
2018-09-29T10:59:20.592Z,73.35
2018-09-29T11:00:20.426Z,73.35
2018-09-29T11:01:20.371Z,73.07
2018-09-29T11:02:41.514Z,73.07
2018-09-29T11:03:41.499Z,73.44
2018-09-29T11:04:20.358Z,72.97
2018-09-29T11:05:20.472Z,71.63
2018-09-29T11:06:20.402Z,71.63
2018-09-29T11:07:41.367Z,71.92
2018-09-29T11:08:41.360Z,71.25
2018-09-29T11:09:20.343Z,70.67
2018-09-29T11:10:20.324Z,70.77
2018-09-29T11:11:20.392Z,70.39
2018-09-29T11:12:41.353Z,69.82
2018-09-29T11:13:41.341Z,69.34
2018-09-29T11:14:20.518Z,68.10
2018-09-29T11:15:20.321Z,68.10
2018-09-29T11:16:20.321Z,68.19
2018-09-29T11:17:41.286Z,68.38
2018-09-29T11:18:41.326Z,68.19
2018-09-29T11:19:20.305Z,68.19
2018-09-29T11:20:20.315Z,67.43
2018-09-29T11:21:20.307Z,67.18
2018-09-29T11:22:41.300Z,66.19
2018-09-29T11:23:41.306Z,66.19
2018-09-29T11:24:20.290Z,65.71
2018-09-29T11:25:20.385Z,65.71
2018-09-29T11:26:20.278Z,65.14
2018-09-29T11:27:41.345Z,66.28
2018-09-29T11:28:41.336Z,66.47
2018-09-29T11:29:20.320Z,66.28
2018-09-29T11:30:20.269Z,66.09
2018-09-29T11:31:20.276Z,66.38
2018-09-29T11:32:41.285Z,66.09
2018-09-29T11:33:41.259Z,66.41
2018-09-29T11:34:20.251Z,67.08
2018-09-29T11:35:20.271Z,66.60
2018-09-29T11:36:20.561Z,66.03
2018-09-29T11:37:43.618Z,65.84
2018-09-29T11:38:41.258Z,65.36
2018-09-29T11:39:20.300Z,65.45
2018-09-29T11:40:20.284Z,64.69
2018-09-29T11:41:20.220Z,64.98
2018-09-29T11:42:41.217Z,64.59
2018-09-29T11:43:41.238Z,64.12
2018-09-29T11:44:20.227Z,64.22
2018-09-29T11:45:20.227Z,63.93
2018-09-29T11:46:20.207Z,63.83
2018-09-29T11:47:42.211Z,64.40
2018-09-29T11:48:41.213Z,63.73
2018-09-29T11:49:20.212Z,63.73
2018-09-29T11:50:20.213Z,63.64
2018-09-29T11:51:20.235Z,63.73
2018-09-29T11:52:41.205Z,63.54
2018-09-29T11:53:41.361Z,63.96
2018-09-29T11:54:20.173Z,64.40
2018-09-29T11:55:20.203Z,63.76
2018-09-29T11:56:20.176Z,63.00
2018-09-29T11:57:41.186Z,63.48
2018-09-29T11:58:41.156Z,62.90
2018-09-29T11:59:20.182Z,63.10
2018-09-29T12:00:20.175Z,62.71
2018-09-29T12:01:20.160Z,63.00
2018-09-29T12:02:41.177Z,63.00
2018-09-29T12:03:41.177Z,63.00
2018-09-29T12:04:20.164Z,62.24
2018-09-29T12:05:20.201Z,62.71
2018-09-29T12:06:20.170Z,62.24
2018-09-29T12:07:41.220Z,62.52
2018-09-29T12:08:41.136Z,62.71
2018-09-29T12:09:20.161Z,62.90
2018-09-29T12:10:20.153Z,63.19
2018-09-29T12:11:20.143Z,62.81
2018-09-29T12:12:41.147Z,62.52
2018-09-29T12:13:41.145Z,62.71
2018-09-29T12:14:20.138Z,62.62
2018-09-29T12:15:20.126Z,62.14
2018-09-29T12:16:20.125Z,61.95
2018-09-29T12:17:41.148Z,62.14
2018-09-29T12:18:41.125Z,61.38
2018-09-29T12:19:20.108Z,61.57
2018-09-29T12:20:20.116Z,61.28
2018-09-29T12:21:20.119Z,61.28
2018-09-29T12:22:41.147Z,61.66
2018-09-29T12:23:41.106Z,61.66
2018-09-29T12:24:20.104Z,61.28
2018-09-29T12:25:20.213Z,61.57
2018-09-29T12:26:20.103Z,60.99
2018-09-29T12:27:41.109Z,61.66
2018-09-29T12:28:41.105Z,61.76
2018-09-29T12:29:20.143Z,61.85
2018-09-29T12:30:20.084Z,61.38
2018-09-29T12:31:20.107Z,61.57
2018-09-29T12:32:41.123Z,61.66
2018-09-29T12:33:41.157Z,61.12
2018-09-29T12:34:20.110Z,61.57
2018-09-29T12:35:20.099Z,61.60
2018-09-29T12:36:20.084Z,60.93
2018-09-29T12:37:41.162Z,60.93
2018-09-29T12:38:41.108Z,61.31
2018-09-29T12:39:20.081Z,60.74
2018-09-29T12:40:20.085Z,60.35
2018-09-29T12:41:20.056Z,60.64
2018-09-29T12:42:41.119Z,60.55
2018-09-29T12:43:41.062Z,60.55
2018-09-29T12:44:20.097Z,60.83
2018-09-29T12:45:20.165Z,60.26
2018-09-29T12:46:20.052Z,60.26
2018-09-29T12:47:41.268Z,60.26
2018-09-29T12:48:41.579Z,60.55
2018-09-29T12:49:20.038Z,60.55
2018-09-29T12:50:20.047Z,60.64
2018-09-29T12:51:20.090Z,60.45
2018-09-29T12:52:41.015Z,60.55